sensor_id;sensor_type;location;lat;lon;timestamp;temperature;humidity
8888;DHT22;4480;52.370;9.748;2023-05-10T00:00:38;14.00;53.10
8888;DHT22;4480;52.370;9.748;2023-05-10T00:03:05;14.00;53.10
8888;DHT22;4480;52.370;9.748;2023-05-10T00:05:32;14.00;53.20
8888;DHT22;4480;52.370;9.748;2023-05-10T00:07:59;14.00;53.20
8888;DHT22;4480;52.370;9.748;2023-05-10T00:10:25;13.90;53.30
8888;DHT22;4480;52.370;9.748;2023-05-10T00:12:52;14.00;53.50
8888;DHT22;4480;52.370;9.748;2023-05-10T00:15:20;13.90;53.50
8888;DHT22;4480;52.370;9.748;2023-05-10T00:17:47;13.90;53.60
8888;DHT22;4480;52.370;9.748;2023-05-10T00:20:14;13.90;53.90
8888;DHT22;4480;52.370;9.748;2023-05-10T00:22:41;13.90;54.20
8888;DHT22;4480;52.370;9.748;2023-05-10T00:25:08;13.80;54.30
8888;DHT22;4480;52.370;9.748;2023-05-10T00:27:35;13.80;54.50
8888;DHT22;4480;52.370;9.748;2023-05-10T00:30:02;13.80;54.60
8888;DHT22;4480;52.370;9.748;2023-05-10T00:32:31;13.80;54.70
8888;DHT22;4480;52.370;9.748;2023-05-10T00:34:57;13.80;54.70
8888;DHT22;4480;52.370;9.748;2023-05-10T00:37:24;13.80;54.80
8888;DHT22;4480;52.370;9.748;2023-05-10T00:39:51;13.70;54.80
8888;DHT22;4480;52.370;9.748;2023-05-10T00:42:18;13.70;54.90
8888;DHT22;4480;52.370;9.748;2023-05-10T00:44:45;13.70;55.00
8888;DHT22;4480;52.370;9.748;2023-05-10T00:47:12;13.70;55.10
8888;DHT22;4480;52.370;9.748;2023-05-10T00:49:40;13.70;55.20
8888;DHT22;4480;52.370;9.748;2023-05-10T00:52:08;13.60;55.30
8888;DHT22;4480;52.370;9.748;2023-05-10T00:54:35;13.60;55.50
8888;DHT22;4480;52.370;9.748;2023-05-10T00:57:02;13.60;55.60
8888;DHT22;4480;52.370;9.748;2023-05-10T00:59:29;13.60;55.80
8888;DHT22;4480;52.370;9.748;2023-05-10T01:01:57;13.50;55.90
8888;DHT22;4480;52.370;9.748;2023-05-10T01:04:24;13.50;56.00
8888;DHT22;4480;52.370;9.748;2023-05-10T01:06:53;13.50;56.40
8888;DHT22;4480;52.370;9.748;2023-05-10T01:09:20;13.50;56.80
8888;DHT22;4480;52.370;9.748;2023-05-10T01:11:47;13.40;56.90
8888;DHT22;4480;52.370;9.748;2023-05-10T01:14:15;13.40;57.00
8888;DHT22;4480;52.370;9.748;2023-05-10T01:16:44;13.40;57.10
8888;DHT22;4480;52.370;9.748;2023-05-10T01:19:18;13.30;57.10
8888;DHT22;4480;52.370;9.748;2023-05-10T01:21:52;13.30;57.30
8888;DHT22;4480;52.370;9.748;2023-05-10T01:24:50;13.30;57.50
8888;DHT22;4480;52.370;9.748;2023-05-10T01:27:45;13.20;57.70
8888;DHT22;4480;52.370;9.748;2023-05-10T01:30:50;13.20;58.00
8888;DHT22;4480;52.370;9.748;2023-05-10T01:33:26;13.10;58.20
8888;DHT22;4480;52.370;9.748;2023-05-10T01:35:58;13.10;58.50
8888;DHT22;4480;52.370;9.748;2023-05-10T01:38:36;13.10;58.80
8888;DHT22;4480;52.370;9.748;2023-05-10T01:41:16;13.00;59.00
8888;DHT22;4480;52.370;9.748;2023-05-10T01:43:49;13.00;59.30
8888;DHT22;4480;52.370;9.748;2023-05-10T01:46:20;13.00;59.70
8888;DHT22;4480;52.370;9.748;2023-05-10T01:48:52;12.90;60.00
8888;DHT22;4480;52.370;9.748;2023-05-10T01:51:23;12.90;60.40
8888;DHT22;4480;52.370;9.748;2023-05-10T01:53:53;12.90;60.90
8888;DHT22;4480;52.370;9.748;2023-05-10T01:56:24;12.80;61.20
8888;DHT22;4480;52.370;9.748;2023-05-10T01:58:53;12.80;61.80
8888;DHT22;4480;52.370;9.748;2023-05-10T02:01:21;12.80;62.30
8888;DHT22;4480;52.370;9.748;2023-05-10T02:03:51;12.80;62.80
8888;DHT22;4480;52.370;9.748;2023-05-10T02:06:18;12.70;63.20
8888;DHT22;4480;52.370;9.748;2023-05-10T02:08:48;12.70;63.80
8888;DHT22;4480;52.370;9.748;2023-05-10T02:11:17;12.70;64.40
8888;DHT22;4480;52.370;9.748;2023-05-10T02:13:48;12.70;65.10
8888;DHT22;4480;52.370;9.748;2023-05-10T02:16:16;12.60;65.50
8888;DHT22;4480;52.370;9.748;2023-05-10T02:18:44;12.60;66.10
8888;DHT22;4480;52.370;9.748;2023-05-10T02:21:14;12.60;66.80
8888;DHT22;4480;52.370;9.748;2023-05-10T02:23:43;12.60;67.50
8888;DHT22;4480;52.370;9.748;2023-05-10T02:26:10;12.60;68.10
8888;DHT22;4480;52.370;9.748;2023-05-10T02:28:39;12.60;68.90
8888;DHT22;4480;52.370;9.748;2023-05-10T02:31:07;12.60;69.50
8888;DHT22;4480;52.370;9.748;2023-05-10T02:33:35;12.60;70.10
8888;DHT22;4480;52.370;9.748;2023-05-10T02:36:03;12.60;70.70
8888;DHT22;4480;52.370;9.748;2023-05-10T02:38:32;12.50;71.90
8888;DHT22;4480;52.370;9.748;2023-05-10T02:41:01;12.50;73.70
8888;DHT22;4480;52.370;9.748;2023-05-10T02:43:30;12.50;74.30
8888;DHT22;4480;52.370;9.748;2023-05-10T02:45:57;12.50;74.70
8888;DHT22;4480;52.370;9.748;2023-05-10T02:48:24;12.50;75.70
8888;DHT22;4480;52.370;9.748;2023-05-10T02:50:52;12.50;77.20
8888;DHT22;4480;52.370;9.748;2023-05-10T02:53:30;12.50;78.40
8888;DHT22;4480;52.370;9.748;2023-05-10T02:56:00;12.50;78.20
8888;DHT22;4480;52.370;9.748;2023-05-10T02:58:29;12.50;79.10
8888;DHT22;4480;52.370;9.748;2023-05-10T03:00:56;12.50;80.40
8888;DHT22;4480;52.370;9.748;2023-05-10T03:03:22;12.50;80.70
8888;DHT22;4480;52.370;9.748;2023-05-10T03:05:49;12.50;81.00
8888;DHT22;4480;52.370;9.748;2023-05-10T03:08:16;12.50;81.20
8888;DHT22;4480;52.370;9.748;2023-05-10T03:10:59;12.50;81.50
8888;DHT22;4480;52.370;9.748;2023-05-10T03:13:34;12.50;81.80
8888;DHT22;4480;52.370;9.748;2023-05-10T03:16:08;12.50;82.30
8888;DHT22;4480;52.370;9.748;2023-05-10T03:18:41;12.50;82.90
8888;DHT22;4480;52.370;9.748;2023-05-10T03:21:11;12.50;83.50
8888;DHT22;4480;52.370;9.748;2023-05-10T03:23:41;12.50;84.50
8888;DHT22;4480;52.370;9.748;2023-05-10T03:26:09;12.50;85.50
8888;DHT22;4480;52.370;9.748;2023-05-10T03:28:41;12.60;87.80
8888;DHT22;4480;52.370;9.748;2023-05-10T03:31:09;12.60;90.60
8888;DHT22;4480;52.370;9.748;2023-05-10T03:33:36;12.60;91.40
8888;DHT22;4480;52.370;9.748;2023-05-10T03:36:11;12.60;91.90
8888;DHT22;4480;52.370;9.748;2023-05-10T03:38:38;12.60;92.30
8888;DHT22;4480;52.370;9.748;2023-05-10T03:41:05;12.60;92.70
8888;DHT22;4480;52.370;9.748;2023-05-10T03:43:32;12.60;93.20
8888;DHT22;4480;52.370;9.748;2023-05-10T03:46:01;12.60;93.80
8888;DHT22;4480;52.370;9.748;2023-05-10T03:48:28;12.60;94.30
8888;DHT22;4480;52.370;9.748;2023-05-10T03:50:54;12.60;94.80
8888;DHT22;4480;52.370;9.748;2023-05-10T03:53:21;12.60;95.30
8888;DHT22;4480;52.370;9.748;2023-05-10T03:55:48;12.60;95.80
8888;DHT22;4480;52.370;9.748;2023-05-10T03:58:15;12.50;96.50
8888;DHT22;4480;52.370;9.748;2023-05-10T04:00:42;12.50;97.00
8888;DHT22;4480;52.370;9.748;2023-05-10T04:03:12;12.50;97.50
8888;DHT22;4480;52.370;9.748;2023-05-10T04:05:39;12.50;97.90
8888;DHT22;4480;52.370;9.748;2023-05-10T04:08:06;12.50;98.50
8888;DHT22;4480;52.370;9.748;2023-05-10T04:11:40;12.50;98.50
8888;DHT22;4480;52.370;9.748;2023-05-10T04:14:07;12.50;99.00
8888;DHT22;4480;52.370;9.748;2023-05-10T04:16:34;12.50;99.30
8888;DHT22;4480;52.370;9.748;2023-05-10T04:19:00;12.50;99.60
8888;DHT22;4480;52.370;9.748;2023-05-10T04:21:27;12.50;99.90
8888;DHT22;4480;52.370;9.748;2023-05-10T04:23:54;12.50;99.90
8888;DHT22;4480;52.370;9.748;2023-05-10T04:26:21;12.50;99.90
8888;DHT22;4480;52.370;9.748;2023-05-10T04:28:49;12.50;99.90
8888;DHT22;4480;52.370;9.748;2023-05-10T04:31:16;12.50;99.90
8888;DHT22;4480;52.370;9.748;2023-05-10T04:33:43;12.50;99.90
8888;DHT22;4480;52.370;9.748;2023-05-10T04:36:10;12.50;99.90
8888;DHT22;4480;52.370;9.748;2023-05-10T04:38:37;12.50;99.90
8888;DHT22;4480;52.370;9.748;2023-05-10T04:41:04;12.50;99.90
8888;DHT22;4480;52.370;9.748;2023-05-10T04:43:31;12.50;99.90
8888;DHT22;4480;52.370;9.748;2023-05-10T04:45:59;12.50;99.90
8888;DHT22;4480;52.370;9.748;2023-05-10T04:48:26;12.40;99.90
8888;DHT22;4480;52.370;9.748;2023-05-10T04:50:53;12.40;99.90
8888;DHT22;4480;52.370;9.748;2023-05-10T04:53:20;12.40;99.90
8888;DHT22;4480;52.370;9.748;2023-05-10T04:55:47;12.50;99.90
8888;DHT22;4480;52.370;9.748;2023-05-10T04:58:14;12.50;99.90
8888;DHT22;4480;52.370;9.748;2023-05-10T05:00:41;12.50;99.90
8888;DHT22;4480;52.370;9.748;2023-05-10T05:03:09;12.60;99.90
8888;DHT22;4480;52.370;9.748;2023-05-10T05:05:36;12.60;99.90
8888;DHT22;4480;52.370;9.748;2023-05-10T05:08:03;12.60;99.90
8888;DHT22;4480;52.370;9.748;2023-05-10T05:10:30;12.60;99.90
8888;DHT22;4480;52.370;9.748;2023-05-10T05:12:57;12.60;99.90
8888;DHT22;4480;52.370;9.748;2023-05-10T05:15:23;12.50;99.90
8888;DHT22;4480;52.370;9.748;2023-05-10T05:17:50;12.50;99.90
8888;DHT22;4480;52.370;9.748;2023-05-10T05:20:18;12.40;99.90
8888;DHT22;4480;52.370;9.748;2023-05-10T05:22:45;12.40;99.90
8888;DHT22;4480;52.370;9.748;2023-05-10T05:25:12;12.40;99.90
8888;DHT22;4480;52.370;9.748;2023-05-10T05:27:39;12.40;99.90
8888;DHT22;4480;52.370;9.748;2023-05-10T05:30:08;12.40;99.90
8888;DHT22;4480;52.370;9.748;2023-05-10T05:32:35;12.40;99.90
8888;DHT22;4480;52.370;9.748;2023-05-10T05:35:02;12.50;99.90
8888;DHT22;4480;52.370;9.748;2023-05-10T05:37:30;12.50;99.90
8888;DHT22;4480;52.370;9.748;2023-05-10T05:39:57;12.60;99.90
8888;DHT22;4480;52.370;9.748;2023-05-10T05:42:25;12.60;99.90
8888;DHT22;4480;52.370;9.748;2023-05-10T05:44:52;12.60;99.90
8888;DHT22;4480;52.370;9.748;2023-05-10T05:47:19;12.60;99.90
8888;DHT22;4480;52.370;9.748;2023-05-10T05:49:45;12.60;99.90
8888;DHT22;4480;52.370;9.748;2023-05-10T05:52:12;12.50;99.90
8888;DHT22;4480;52.370;9.748;2023-05-10T05:54:40;12.50;99.90
8888;DHT22;4480;52.370;9.748;2023-05-10T05:57:07;12.50;99.90
8888;DHT22;4480;52.370;9.748;2023-05-10T05:59:34;12.60;99.90
8888;DHT22;4480;52.370;9.748;2023-05-10T06:02:01;12.60;99.90
8888;DHT22;4480;52.370;9.748;2023-05-10T06:04:27;12.60;99.90
8888;DHT22;4480;52.370;9.748;2023-05-10T06:06:54;12.60;99.90
8888;DHT22;4480;52.370;9.748;2023-05-10T06:09:21;12.60;99.90
8888;DHT22;4480;52.370;9.748;2023-05-10T06:11:51;12.60;99.90
8888;DHT22;4480;52.370;9.748;2023-05-10T06:14:20;12.60;99.90
8888;DHT22;4480;52.370;9.748;2023-05-10T06:16:46;12.70;99.90
8888;DHT22;4480;52.370;9.748;2023-05-10T06:19:13;12.80;99.90
8888;DHT22;4480;52.370;9.748;2023-05-10T06:21:40;12.90;99.90
8888;DHT22;4480;52.370;9.748;2023-05-10T06:24:07;13.00;99.90
8888;DHT22;4480;52.370;9.748;2023-05-10T06:26:34;13.10;99.90
8888;DHT22;4480;52.370;9.748;2023-05-10T06:29:02;13.10;99.90
8888;DHT22;4480;52.370;9.748;2023-05-10T06:31:28;13.20;99.90
8888;DHT22;4480;52.370;9.748;2023-05-10T06:33:55;13.20;99.90
8888;DHT22;4480;52.370;9.748;2023-05-10T06:36:23;13.20;99.90
8888;DHT22;4480;52.370;9.748;2023-05-10T06:38:51;13.20;99.90
8888;DHT22;4480;52.370;9.748;2023-05-10T06:41:18;13.20;99.90
8888;DHT22;4480;52.370;9.748;2023-05-10T06:43:45;13.20;99.90
8888;DHT22;4480;52.370;9.748;2023-05-10T06:46:13;13.20;99.90
8888;DHT22;4480;52.370;9.748;2023-05-10T06:48:40;13.30;99.90
8888;DHT22;4480;52.370;9.748;2023-05-10T06:51:07;13.30;99.90
8888;DHT22;4480;52.370;9.748;2023-05-10T06:53:34;13.30;99.90
8888;DHT22;4480;52.370;9.748;2023-05-10T06:56:00;13.40;99.90
8888;DHT22;4480;52.370;9.748;2023-05-10T06:58:28;13.50;99.90
8888;DHT22;4480;52.370;9.748;2023-05-10T07:01:01;13.50;99.90
8888;DHT22;4480;52.370;9.748;2023-05-10T07:03:30;13.60;99.90
8888;DHT22;4480;52.370;9.748;2023-05-10T07:06:00;13.70;99.90
8888;DHT22;4480;52.370;9.748;2023-05-10T07:08:28;13.80;99.90
8888;DHT22;4480;52.370;9.748;2023-05-10T07:11:00;13.90;99.90
8888;DHT22;4480;52.370;9.748;2023-05-10T07:13:26;14.00;99.90
8888;DHT22;4480;52.370;9.748;2023-05-10T07:15:53;14.10;99.90
8888;DHT22;4480;52.370;9.748;2023-05-10T07:18:20;14.10;99.90
8888;DHT22;4480;52.370;9.748;2023-05-10T07:20:48;14.10;99.90
8888;DHT22;4480;52.370;9.748;2023-05-10T07:23:15;14.10;99.90
8888;DHT22;4480;52.370;9.748;2023-05-10T07:25:44;14.00;99.90
8888;DHT22;4480;52.370;9.748;2023-05-10T07:28:11;13.90;99.90
8888;DHT22;4480;52.370;9.748;2023-05-10T07:30:38;13.80;99.90
8888;DHT22;4480;52.370;9.748;2023-05-10T07:33:05;13.60;99.90
8888;DHT22;4480;52.370;9.748;2023-05-10T07:35:32;13.60;99.90
8888;DHT22;4480;52.370;9.748;2023-05-10T07:38:00;13.60;99.90
8888;DHT22;4480;52.370;9.748;2023-05-10T07:40:28;13.50;99.90
8888;DHT22;4480;52.370;9.748;2023-05-10T07:42:55;13.50;99.90
8888;DHT22;4480;52.370;9.748;2023-05-10T07:45:21;13.60;99.90
8888;DHT22;4480;52.370;9.748;2023-05-10T07:47:48;13.50;99.90
8888;DHT22;4480;52.370;9.748;2023-05-10T07:50:15;13.40;99.90
8888;DHT22;4480;52.370;9.748;2023-05-10T07:52:42;13.30;99.90
8888;DHT22;4480;52.370;9.748;2023-05-10T07:55:10;13.20;99.90
8888;DHT22;4480;52.370;9.748;2023-05-10T07:57:37;13.20;99.90
8888;DHT22;4480;52.370;9.748;2023-05-10T08:00:05;13.10;99.90
8888;DHT22;4480;52.370;9.748;2023-05-10T08:02:33;13.20;99.90
8888;DHT22;4480;52.370;9.748;2023-05-10T08:05:00;13.20;99.90
8888;DHT22;4480;52.370;9.748;2023-05-10T08:07:27;13.20;99.90
8888;DHT22;4480;52.370;9.748;2023-05-10T08:09:53;13.20;99.90
8888;DHT22;4480;52.370;9.748;2023-05-10T08:12:22;13.30;99.90
8888;DHT22;4480;52.370;9.748;2023-05-10T08:14:48;13.20;99.90
8888;DHT22;4480;52.370;9.748;2023-05-10T08:17:15;13.20;99.90
8888;DHT22;4480;52.370;9.748;2023-05-10T08:19:42;13.20;99.90
8888;DHT22;4480;52.370;9.748;2023-05-10T08:22:08;13.30;99.90
8888;DHT22;4480;52.370;9.748;2023-05-10T08:24:35;13.30;99.90
8888;DHT22;4480;52.370;9.748;2023-05-10T08:27:04;13.40;99.90
8888;DHT22;4480;52.370;9.748;2023-05-10T08:29:32;13.40;99.90
8888;DHT22;4480;52.370;9.748;2023-05-10T08:31:59;13.40;99.90
8888;DHT22;4480;52.370;9.748;2023-05-10T08:34:26;13.30;99.90
8888;DHT22;4480;52.370;9.748;2023-05-10T08:36:53;13.30;99.90
8888;DHT22;4480;52.370;9.748;2023-05-10T08:39:19;13.30;99.90
8888;DHT22;4480;52.370;9.748;2023-05-10T08:41:47;13.30;99.90
8888;DHT22;4480;52.370;9.748;2023-05-10T08:44:15;13.40;99.90
8888;DHT22;4480;52.370;9.748;2023-05-10T08:46:46;13.40;99.90
8888;DHT22;4480;52.370;9.748;2023-05-10T08:49:17;13.40;99.90
8888;DHT22;4480;52.370;9.748;2023-05-10T08:51:49;13.40;99.90
8888;DHT22;4480;52.370;9.748;2023-05-10T08:54:16;13.40;99.90
8888;DHT22;4480;52.370;9.748;2023-05-10T08:56:43;13.50;99.90
8888;DHT22;4480;52.370;9.748;2023-05-10T08:59:10;13.60;99.90
8888;DHT22;4480;52.370;9.748;2023-05-10T09:01:39;13.80;99.90
8888;DHT22;4480;52.370;9.748;2023-05-10T09:04:07;13.80;99.90
8888;DHT22;4480;52.370;9.748;2023-05-10T09:06:34;13.80;99.90
8888;DHT22;4480;52.370;9.748;2023-05-10T09:09:01;13.80;99.90
8888;DHT22;4480;52.370;9.748;2023-05-10T09:11:29;13.80;99.90
8888;DHT22;4480;52.370;9.748;2023-05-10T09:13:56;13.80;99.90
8888;DHT22;4480;52.370;9.748;2023-05-10T09:16:24;13.80;99.90
8888;DHT22;4480;52.370;9.748;2023-05-10T09:18:50;13.90;99.90
8888;DHT22;4480;52.370;9.748;2023-05-10T09:21:19;13.90;99.90
8888;DHT22;4480;52.370;9.748;2023-05-10T09:23:46;13.90;99.90
8888;DHT22;4480;52.370;9.748;2023-05-10T09:26:13;13.90;99.90
8888;DHT22;4480;52.370;9.748;2023-05-10T09:28:50;13.90;99.90
8888;DHT22;4480;52.370;9.748;2023-05-10T09:31:17;14.00;99.90
8888;DHT22;4480;52.370;9.748;2023-05-10T09:33:44;14.00;99.90
8888;DHT22;4480;52.370;9.748;2023-05-10T09:36:12;14.10;99.90
8888;DHT22;4480;52.370;9.748;2023-05-10T09:38:46;14.20;99.90
8888;DHT22;4480;52.370;9.748;2023-05-10T09:41:18;14.30;99.90
8888;DHT22;4480;52.370;9.748;2023-05-10T09:43:45;14.60;99.90
8888;DHT22;4480;52.370;9.748;2023-05-10T09:46:12;14.70;99.90
8888;DHT22;4480;52.370;9.748;2023-05-10T09:48:42;14.80;99.90
8888;DHT22;4480;52.370;9.748;2023-05-10T09:51:09;14.80;99.90
8888;DHT22;4480;52.370;9.748;2023-05-10T09:53:36;14.90;99.90
8888;DHT22;4480;52.370;9.748;2023-05-10T09:56:04;15.00;99.90
8888;DHT22;4480;52.370;9.748;2023-05-10T09:58:31;15.10;99.90
8888;DHT22;4480;52.370;9.748;2023-05-10T10:00:58;15.20;99.90
8888;DHT22;4480;52.370;9.748;2023-05-10T10:03:25;15.30;99.90
8888;DHT22;4480;52.370;9.748;2023-05-10T10:05:51;15.30;99.90
8888;DHT22;4480;52.370;9.748;2023-05-10T10:08:21;15.20;99.90
8888;DHT22;4480;52.370;9.748;2023-05-10T10:10:49;15.10;99.90
8888;DHT22;4480;52.370;9.748;2023-05-10T10:13:17;15.10;99.90
8888;DHT22;4480;52.370;9.748;2023-05-10T10:15:44;15.10;99.90
8888;DHT22;4480;52.370;9.748;2023-05-10T10:18:13;15.20;99.90
8888;DHT22;4480;52.370;9.748;2023-05-10T10:20:41;15.30;99.90
8888;DHT22;4480;52.370;9.748;2023-05-10T10:23:08;15.30;99.90
8888;DHT22;4480;52.370;9.748;2023-05-10T10:25:35;15.40;99.90
8888;DHT22;4480;52.370;9.748;2023-05-10T10:28:19;15.50;99.90
8888;DHT22;4480;52.370;9.748;2023-05-10T10:30:50;15.70;99.90
8888;DHT22;4480;52.370;9.748;2023-05-10T10:33:39;16.00;99.90
8888;DHT22;4480;52.370;9.748;2023-05-10T10:36:07;16.20;99.90
8888;DHT22;4480;52.370;9.748;2023-05-10T10:38:38;16.40;99.90
8888;DHT22;4480;52.370;9.748;2023-05-10T10:41:32;16.50;99.90
8888;DHT22;4480;52.370;9.748;2023-05-10T10:47:21;16.90;99.90
8888;DHT22;4480;52.370;9.748;2023-05-10T10:50:03;16.90;99.90
8888;DHT22;4480;52.370;9.748;2023-05-10T10:52:36;16.90;99.90
8888;DHT22;4480;52.370;9.748;2023-05-10T10:55:05;17.00;99.90
8888;DHT22;4480;52.370;9.748;2023-05-10T10:57:43;17.10;99.90
8888;DHT22;4480;52.370;9.748;2023-05-10T11:00:24;17.30;99.90
8888;DHT22;4480;52.370;9.748;2023-05-10T11:02:53;17.60;99.90
8888;DHT22;4480;52.370;9.748;2023-05-10T11:05:35;17.80;99.90
8888;DHT22;4480;52.370;9.748;2023-05-10T11:08:11;18.00;99.90
8888;DHT22;4480;52.370;9.748;2023-05-10T11:10:39;18.10;99.90
8888;DHT22;4480;52.370;9.748;2023-05-10T11:13:07;18.20;99.90
8888;DHT22;4480;52.370;9.748;2023-05-10T11:15:36;18.30;99.90
8888;DHT22;4480;52.370;9.748;2023-05-10T11:18:18;18.30;99.90
8888;DHT22;4480;52.370;9.748;2023-05-10T11:20:50;18.40;99.90
8888;DHT22;4480;52.370;9.748;2023-05-10T11:23:17;18.40;99.90
8888;DHT22;4480;52.370;9.748;2023-05-10T11:25:45;18.40;99.90
8888;DHT22;4480;52.370;9.748;2023-05-10T11:28:13;18.60;99.90
8888;DHT22;4480;52.370;9.748;2023-05-10T11:30:41;18.80;99.90
8888;DHT22;4480;52.370;9.748;2023-05-10T11:33:14;19.00;99.90
8888;DHT22;4480;52.370;9.748;2023-05-10T11:35:42;19.10;99.10
8888;DHT22;4480;52.370;9.748;2023-05-10T11:38:10;19.20;98.20
8888;DHT22;4480;52.370;9.748;2023-05-10T11:40:38;19.40;98.30
8888;DHT22;4480;52.370;9.748;2023-05-10T11:43:05;19.70;97.60
8888;DHT22;4480;52.370;9.748;2023-05-10T11:45:32;19.90;96.30
8888;DHT22;4480;52.370;9.748;2023-05-10T11:48:00;20.10;94.80
8888;DHT22;4480;52.370;9.748;2023-05-10T11:50:27;20.30;93.30
8888;DHT22;4480;52.370;9.748;2023-05-10T11:52:56;20.40;91.50
8888;DHT22;4480;52.370;9.748;2023-05-10T11:55:24;20.30;89.80
8888;DHT22;4480;52.370;9.748;2023-05-10T11:57:52;20.40;89.60
8888;DHT22;4480;52.370;9.748;2023-05-10T12:00:19;20.50;83.60
8888;DHT22;4480;52.370;9.748;2023-05-10T12:02:46;20.70;81.40
8888;DHT22;4480;52.370;9.748;2023-05-10T12:05:13;20.80;78.80
8888;DHT22;4480;52.370;9.748;2023-05-10T12:07:40;21.00;76.50
8888;DHT22;4480;52.370;9.748;2023-05-10T12:10:10;21.30;74.50
8888;DHT22;4480;52.370;9.748;2023-05-10T12:12:40;21.60;72.50
8888;DHT22;4480;52.370;9.748;2023-05-10T12:15:12;21.90;71.50
8888;DHT22;4480;52.370;9.748;2023-05-10T12:17:39;22.20;69.20
8888;DHT22;4480;52.370;9.748;2023-05-10T12:20:16;22.20;68.40
8888;DHT22;4480;52.370;9.748;2023-05-10T12:22:48;22.20;67.60
8888;DHT22;4480;52.370;9.748;2023-05-10T12:25:17;21.90;67.50
8888;DHT22;4480;52.370;9.748;2023-05-10T12:27:54;21.70;68.20
8888;DHT22;4480;52.370;9.748;2023-05-10T12:30:22;21.40;69.60
8888;DHT22;4480;52.370;9.748;2023-05-10T12:32:50;21.30;70.90
8888;DHT22;4480;52.370;9.748;2023-05-10T12:35:17;21.30;71.20
8888;DHT22;4480;52.370;9.748;2023-05-10T12:37:46;21.20;71.30
8888;DHT22;4480;52.370;9.748;2023-05-10T12:40:13;21.20;72.10
8888;DHT22;4480;52.370;9.748;2023-05-10T12:42:41;21.50;71.80
8888;DHT22;4480;52.370;9.748;2023-05-10T12:45:10;21.90;70.40
8888;DHT22;4480;52.370;9.748;2023-05-10T12:47:37;22.30;69.20
8888;DHT22;4480;52.370;9.748;2023-05-10T12:50:05;22.80;67.50
8888;DHT22;4480;52.370;9.748;2023-05-10T12:52:32;23.20;65.40
8888;DHT22;4480;52.370;9.748;2023-05-10T12:54:59;23.20;63.90
8888;DHT22;4480;52.370;9.748;2023-05-10T12:57:26;22.90;64.00
8888;DHT22;4480;52.370;9.748;2023-05-10T12:59:55;22.60;64.50
8888;DHT22;4480;52.370;9.748;2023-05-10T13:02:21;22.40;65.40
8888;DHT22;4480;52.370;9.748;2023-05-10T13:04:49;22.40;65.50
8888;DHT22;4480;52.370;9.748;2023-05-10T13:07:16;22.50;65.60
8888;DHT22;4480;52.370;9.748;2023-05-10T13:09:42;22.70;65.10
8888;DHT22;4480;52.370;9.748;2023-05-10T13:12:09;22.70;64.70
8888;DHT22;4480;52.370;9.748;2023-05-10T13:14:36;22.60;65.00
8888;DHT22;4480;52.370;9.748;2023-05-10T13:17:04;22.70;65.00
8888;DHT22;4480;52.370;9.748;2023-05-10T13:19:31;22.70;64.90
8888;DHT22;4480;52.370;9.748;2023-05-10T13:21:57;22.60;65.20
8888;DHT22;4480;52.370;9.748;2023-05-10T13:24:24;22.70;65.10
8888;DHT22;4480;52.370;9.748;2023-05-10T13:26:51;22.70;64.00
8888;DHT22;4480;52.370;9.748;2023-05-10T13:29:17;22.90;63.80
8888;DHT22;4480;52.370;9.748;2023-05-10T13:31:45;22.90;63.60
8888;DHT22;4480;52.370;9.748;2023-05-10T13:34:13;22.90;63.00
8888;DHT22;4480;52.370;9.748;2023-05-10T13:36:40;22.80;62.60
8888;DHT22;4480;52.370;9.748;2023-05-10T13:39:06;22.80;62.70
8888;DHT22;4480;52.370;9.748;2023-05-10T13:41:33;22.70;63.10
8888;DHT22;4480;52.370;9.748;2023-05-10T13:44:00;22.80;63.60
8888;DHT22;4480;52.370;9.748;2023-05-10T13:46:27;23.00;63.20
8888;DHT22;4480;52.370;9.748;2023-05-10T13:48:54;23.10;62.80
8888;DHT22;4480;52.370;9.748;2023-05-10T13:51:22;23.00;62.70
8888;DHT22;4480;52.370;9.748;2023-05-10T13:53:49;22.80;62.80
8888;DHT22;4480;52.370;9.748;2023-05-10T13:56:15;22.60;63.40
8888;DHT22;4480;52.370;9.748;2023-05-10T13:58:42;22.40;63.90
8888;DHT22;4480;52.370;9.748;2023-05-10T14:01:09;22.20;64.50
8888;DHT22;4480;52.370;9.748;2023-05-10T14:03:37;21.80;65.20
8888;DHT22;4480;52.370;9.748;2023-05-10T14:06:04;21.30;67.10
8888;DHT22;4480;52.370;9.748;2023-05-10T14:08:34;21.00;69.10
8888;DHT22;4480;52.370;9.748;2023-05-10T14:11:01;20.80;70.40
8888;DHT22;4480;52.370;9.748;2023-05-10T14:13:27;20.80;71.80
8888;DHT22;4480;52.370;9.748;2023-05-10T14:15:54;20.60;72.60
8888;DHT22;4480;52.370;9.748;2023-05-10T14:18:21;20.30;73.70
8888;DHT22;4480;52.370;9.748;2023-05-10T14:20:49;20.00;75.40
8888;DHT22;4480;52.370;9.748;2023-05-10T14:23:15;19.70;76.50
8888;DHT22;4480;52.370;9.748;2023-05-10T14:25:44;19.40;77.80
8888;DHT22;4480;52.370;9.748;2023-05-10T14:28:10;19.10;79.40
8888;DHT22;4480;52.370;9.748;2023-05-10T14:30:37;18.70;81.50
8888;DHT22;4480;52.370;9.748;2023-05-10T14:33:04;18.50;83.70
8888;DHT22;4480;52.370;9.748;2023-05-10T14:35:31;18.40;86.20
8888;DHT22;4480;52.370;9.748;2023-05-10T14:37:57;18.40;87.80
8888;DHT22;4480;52.370;9.748;2023-05-10T14:40:24;18.40;90.40
8888;DHT22;4480;52.370;9.748;2023-05-10T14:42:53;18.50;91.90
8888;DHT22;4480;52.370;9.748;2023-05-10T14:45:20;18.50;91.90
8888;DHT22;4480;52.370;9.748;2023-05-10T14:47:48;18.40;92.60
8888;DHT22;4480;52.370;9.748;2023-05-10T14:50:14;18.30;93.20
8888;DHT22;4480;52.370;9.748;2023-05-10T14:52:42;18.20;94.60
8888;DHT22;4480;52.370;9.748;2023-05-10T14:55:09;18.20;95.50
8888;DHT22;4480;52.370;9.748;2023-05-10T14:57:36;18.20;96.00
8888;DHT22;4480;52.370;9.748;2023-05-10T15:00:05;18.30;96.10
8888;DHT22;4480;52.370;9.748;2023-05-10T15:02:32;18.40;96.20
8888;DHT22;4480;52.370;9.748;2023-05-10T15:04:59;18.60;95.40
8888;DHT22;4480;52.370;9.748;2023-05-10T15:07:26;18.70;94.70
8888;DHT22;4480;52.370;9.748;2023-05-10T15:09:52;18.80;94.10
8888;DHT22;4480;52.370;9.748;2023-05-10T15:12:19;18.90;93.70
8888;DHT22;4480;52.370;9.748;2023-05-10T15:14:46;18.90;93.60
8888;DHT22;4480;52.370;9.748;2023-05-10T15:17:14;18.90;94.40
8888;DHT22;4480;52.370;9.748;2023-05-10T15:19:41;18.70;95.00
8888;DHT22;4480;52.370;9.748;2023-05-10T15:22:08;18.70;96.20
8888;DHT22;4480;52.370;9.748;2023-05-10T15:24:35;18.80;96.70
8888;DHT22;4480;52.370;9.748;2023-05-10T15:27:02;18.80;96.40
8888;DHT22;4480;52.370;9.748;2023-05-10T15:29:29;18.80;96.20
8888;DHT22;4480;52.370;9.748;2023-05-10T15:31:56;18.70;96.80
8888;DHT22;4480;52.370;9.748;2023-05-10T15:34:24;18.60;97.70
8888;DHT22;4480;52.370;9.748;2023-05-10T15:36:51;18.40;98.60
8888;DHT22;4480;52.370;9.748;2023-05-10T15:39:18;18.30;99.10
8888;DHT22;4480;52.370;9.748;2023-05-10T15:41:45;18.20;99.80
8888;DHT22;4480;52.370;9.748;2023-05-10T15:44:12;18.10;99.90
8888;DHT22;4480;52.370;9.748;2023-05-10T15:46:39;18.10;99.90
8888;DHT22;4480;52.370;9.748;2023-05-10T15:49:06;18.00;99.90
8888;DHT22;4480;52.370;9.748;2023-05-10T15:51:34;17.90;99.90
8888;DHT22;4480;52.370;9.748;2023-05-10T15:54:01;17.90;99.90
8888;DHT22;4480;52.370;9.748;2023-05-10T15:56:28;17.80;99.90
8888;DHT22;4480;52.370;9.748;2023-05-10T15:58:55;17.70;99.90
8888;DHT22;4480;52.370;9.748;2023-05-10T16:01:21;17.70;99.90
8888;DHT22;4480;52.370;9.748;2023-05-10T16:03:48;17.60;99.90
8888;DHT22;4480;52.370;9.748;2023-05-10T16:06:15;17.60;99.90
8888;DHT22;4480;52.370;9.748;2023-05-10T16:08:43;17.50;99.90
8888;DHT22;4480;52.370;9.748;2023-05-10T16:11:10;17.40;99.90
8888;DHT22;4480;52.370;9.748;2023-05-10T16:13:37;17.20;99.90